Time;durP1;ratioP1;P1;durP2;ratioP2;P2;SDS_P1;SDS_P2;PMS_P1;PMS_P2;Temp;Humidity;BMP_temperature;BMP_pressure;BME280_temperature;BME280_humidity;BME280_pressure;Samples;Min_cycle;Max_cycle;Signal;HPM_P1;HPM_P2
2022/05/06 00:02:02;;;;;;;18.40;12.65;;;;;;;12.07;66.89;95556.22;4980510;28;20010;-76
2022/05/06 00:04:28;;;;;;;23.10;14.38;;;;;;;12.06;67.04;95553.84;4979800;28;20031;-76
2022/05/06 00:06:53;;;;;;;28.48;15.05;;;;;;;12.06;67.27;95559.06;4963279;28;20030;-76
2022/05/06 00:09:19;;;;;;;31.45;16.88;;;;;;;12.02;66.86;95553.47;4979529;28;20054;-76
2022/05/06 00:11:44;;;;;;;32.95;18.35;;;;;;;11.98;67.25;95568.78;4979425;28;20034;-76
2022/05/06 00:14:10;;;;;;;35.55;19.50;;;;;;;11.93;67.13;95558.22;4946445;28;20035;-76
2022/05/06 00:16:35;;;;;;;36.78;21.67;;;;;;;11.89;67.07;95554.47;4978708;28;20520;-77
2022/05/06 00:19:09;;;;;;;31.33;19.50;;;;;;;11.86;67.03;95560.09;4961860;28;20047;-76
2022/05/06 00:21:35;;;;;;;33.17;18.40;;;;;;;11.84;67.28;95566.56;4980210;28;20554;-76
2022/05/06 00:24:07;;;;;;;20.67;13.40;;;;;;;11.78;67.49;95568.22;4979844;28;20050;-76
2022/05/06 00:48:05;;;;;;;27.50;17.45;;;;;;;11.89;67.25;95569.31;5179085;27;20948;-75
2022/05/06 00:50:32;;;;;;;38.65;19.88;;;;;;;11.84;67.62;95566.56;5146279;27;20043;-75
2022/05/06 00:52:57;;;;;;;30.75;20.08;;;;;;;11.80;67.01;95566.22;5125296;22;20066;-76
2022/05/06 00:55:23;;;;;;;31.42;19.10;;;;;;;11.76;67.30;95575.47;5106504;28;20027;-76
2022/05/06 00:57:48;;;;;;;28.90;19.85;;;;;;;11.73;67.02;95578.50;5111245;28;20523;-76
2022/05/06 01:00:20;;;;;;;29.30;18.58;;;;;;;11.72;66.84;95572.50;5121936;28;20036;-76
2022/05/06 01:02:46;;;;;;;25.98;17.20;;;;;;;11.67;67.18;95571.56;5107127;28;20034;-76
2022/05/06 01:05:15;;;;;;;33.20;17.90;;;;;;;11.64;67.55;95582.41;5107302;28;20031;-76
2022/05/06 01:07:41;;;;;;;23.20;17.30;;;;;;;11.61;67.36;95578.44;5106288;28;20034;-76
2022/05/06 01:10:07;;;;;;;27.13;16.58;;;;;;;11.59;67.72;95579.69;5106195;28;20028;-76
2022/05/06 01:12:33;;;;;;;21.15;14.25;;;;;;;11.58;67.61;95583.31;5088043;28;20122;-75
2022/05/06 01:14:59;;;;;;;27.50;14.20;;;;;;;11.56;67.76;95580.13;5087870;28;20395;-75
2022/05/06 01:17:24;;;;;;;24.98;13.60;;;;;;;11.56;67.78;95580.13;5104490;28;20039;-76
2022/05/06 01:19:49;;;;;;;21.17;12.93;;;;;;;11.54;67.73;95576.91;5105903;28;20031;-75
2022/05/06 01:22:15;;;;;;;23.63;13.65;;;;;;;11.51;68.38;95572.16;5105785;28;20040;-75
2022/05/06 01:24:41;;;;;;;20.38;13.30;;;;;;;11.51;67.60;95572.16;5104713;28;20039;-76
2022/05/06 01:27:07;;;;;;;24.50;13.38;;;;;;;11.48;67.62;95573.41;5102975;28;20043;-75
2022/05/06 01:29:32;;;;;;;20.35;12.52;;;;;;;11.45;67.50;95573.03;5104239;28;20051;-75
2022/05/06 01:31:58;;;;;;;22.08;13.00;;;;;;;11.46;67.60;95574.63;5105696;28;20571;-75
2022/05/06 01:34:27;;;;;;;14.93;11.40;;;;;;;11.44;68.30;95569.63;5104893;28;20028;-75
2022/05/06 01:36:53;;;;;;;15.90;12.27;;;;;;;11.47;68.02;95563.19;5104499;28;20028;-74
2022/05/06 01:39:20;;;;;;;15.90;10.85;;;;;;;11.47;67.70;95565.81;5105521;28;20098;-75
2022/05/06 01:42:06;;;;;;;23.50;10.65;;;;;;;11.42;67.56;95564.66;5104264;28;20032;-76
2022/05/06 01:44:41;;;;;;;16.05;10.00;;;;;;;11.40;67.59;95561.47;5068639;28;20426;-74
2022/05/06 01:47:10;;;;;;;20.40;11.15;;;;;;;11.37;67.39;95561.09;5102606;28;20118;-74
2022/05/06 01:49:35;;;;;;;17.83;11.00;;;;;;;11.32;67.82;95566.16;5090255;28;20027;-77
2022/05/06 01:52:01;;;;;;;21.10;11.52;;;;;;;11.31;68.21;95564.56;5091661;28;20032;-76
2022/05/06 01:54:26;;;;;;;21.55;10.85;;;;;;;11.25;68.04;95558.44;5073944;28;20097;-76
2022/05/06 01:56:51;;;;;;;16.90;10.63;;;;;;;11.32;68.32;95564.34;5091792;28;20035;-76
2022/05/06 01:59:17;;;;;;;17.25;11.05;;;;;;;11.33;67.48;95565.94;5091457;28;20036;-75
2022/05/06 02:01:42;;;;;;;15.18;10.70;;;;;;;11.31;68.36;95569.78;5073304;28;20036;-75
2022/05/06 02:06:52;;;;;;;18.85;11.77;;;;;;;11.23;68.76;95557.06;5091627;28;20824;-75
2022/05/06 02:09:17;;;;;;;19.02;10.77;;;;;;;11.25;68.74;95561.03;5090572;28;20028;-75
2022/05/06 02:11:43;;;;;;;15.70;11.10;;;;;;;11.26;68.99;95569.66;5091858;28;20468;-75
2022/05/06 02:14:08;;;;;;;19.88;11.88;;;;;;;11.27;68.75;95566.81;5092050;28;20574;-76
2022/05/06 02:16:33;;;;;;;23.38;11.60;;;;;;;11.27;69.00;95572.03;5090477;28;20546;-76
2022/05/06 02:18:59;;;;;;;30.85;12.60;;;;;;;11.24;68.27;95572.47;5090110;28;20028;-76
2022/05/06 02:21:25;;;;;;;24.33;13.32;;;;;;;11.23;68.77;95578.69;5089995;28;20897;-76
2022/05/06 02:23:50;;;;;;;25.23;12.63;;;;;;;11.26;68.50;95574.84;5073588;28;20032;-76
2022/05/06 02:26:15;;;;;;;32.17;13.93;;;;;;;11.21;68.81;95567.66;5090459;28;20028;-76
2022/05/06 02:28:41;;;;;;;18.95;12.93;;;;;;;11.19;68.51;95574.91;5073366;28;20051;-75
2022/05/06 02:33:50;;;;;;;19.38;11.10;;;;;;;11.15;68.53;95568.56;5076308;28;20035;-76
2022/05/06 02:36:16;;;;;;;20.90;10.85;;;;;;;11.11;68.20;95570.00;5072787;28;20032;-76
2022/05/06 02:38:41;;;;;;;26.27;12.57;;;;;;;11.11;68.21;95568.19;5072634;28;20585;-76
2022/05/06 02:41:07;;;;;;;17.50;12.23;;;;;;;11.12;68.35;95563.78;5089652;28;20038;-75
2022/05/06 02:43:32;;;;;;;31.83;11.45;;;;;;;11.07;68.34;95566.25;5072785;28;20032;-75
2022/05/06 02:45:58;;;;;;;20.40;10.77;;;;;;;11.04;68.05;95564.06;5089574;28;20494;-76
2022/05/06 02:48:23;;;;;;;23.40;10.73;;;;;;;11.04;68.45;95569.25;5091007;28;20035;-75
2022/05/06 02:50:48;;;;;;;14.40;10.18;;;;;;;11.01;68.75;95565.28;5055635;28;20024;-76
2022/05/06 02:53:14;;;;;;;21.83;11.23;;;;;;;11.02;68.58;95561.66;5091288;28;20031;-75
2022/05/06 02:55:39;;;;;;;16.80;10.50;;;;;;;11.02;68.85;95563.47;5090963;28;20032;-75
2022/05/06 02:58:05;;;;;;;12.75;9.63;;;;;;;11.01;68.59;95565.28;5089337;28;20046;-76
2022/05/06 03:00:30;;;;;;;12.45;10.05;;;;;;;10.99;68.62;95575.13;5087903;28;20110;-76
2022/05/06 03:02:56;;;;;;;20.27;10.40;;;;;;;10.98;68.78;95572.72;5102854;28;20028;-75
2022/05/06 03:05:25;;;;;;;16.40;9.75;;;;;;;10.97;69.40;95576.34;5097900;28;20054;-76
2022/05/06 03:07:51;;;;;;;10.60;9.60;;;;;;;11.02;69.30;95573.88;5072828;28;20524;-76
2022/05/06 03:10:16;;;;;;;16.27;12.75;;;;;;;11.04;69.12;95582.28;5089607;28;20107;-76
2022/05/06 03:12:42;;;;;;;13.07;10.70;;;;;;;11.04;68.32;95579.66;5071725;28;20032;-75
2022/05/06 03:15:08;;;;;;;23.27;11.70;;;;;;;11.06;68.79;95575.03;5089442;28;20020;-76
2022/05/06 03:17:33;;;;;;;13.63;10.68;;;;;;;11.04;68.66;95577.06;5088785;28;20494;-75
2022/05/06 03:19:59;;;;;;;18.02;10.13;;;;;;;11.11;68.92;95575.22;5090341;28;20157;-76
2022/05/06 03:22:24;;;;;;;11.18;9.57;;;;;;;11.13;68.93;95575.78;5090587;28;20032;-76
2022/05/06 03:24:50;;;;;;;16.10;10.07;;;;;;;11.17;68.41;95581.34;5093979;28;20035;-76
2022/05/06 03:30:12;;;;;;;21.77;10.75;;;;;;;11.27;68.01;95586.84;5092005;28;20115;-75
2022/05/06 03:32:37;;;;;;;15.20;10.55;;;;;;;11.27;68.22;95598.06;5089828;28;20052;-77
2022/05/06 03:35:03;;;;;;;11.82;9.75;;;;;;;11.29;67.58;95598.66;5090592;28;20104;-77
2022/05/06 03:37:28;;;;;;;16.20;10.90;;;;;;;11.29;67.83;95596.03;5071912;28;20108;-76
2022/05/06 03:39:54;;;;;;;23.45;12.20;;;;;;;11.28;67.76;95593.66;5063101;28;20025;-75
2022/05/06 03:42:19;;;;;;;15.23;12.05;;;;;;;11.32;67.88;95598.19;5072309;28;20036;-75
2022/05/06 03:44:44;;;;;;;20.80;10.43;;;;;;;11.31;67.47;95594.00;5090519;28;20036;-76
2022/05/06 03:47:10;;;;;;;13.52;10.23;;;;;;;11.34;67.60;95606.59;5090689;28;20028;-77
2022/05/06 03:49:35;;;;;;;14.80;10.32;;;;;;;11.37;68.07;95603.56;5086444;28;20063;-75
2022/05/06 03:52:01;;;;;;;15.85;11.35;;;;;;;11.35;67.71;95610.00;5090575;28;20043;-75
2022/05/06 03:54:26;;;;;;;19.42;13.07;;;;;;;11.38;67.87;95605.13;5090780;28;20028;-75
2022/05/06 03:56:52;;;;;;;26.40;15.77;;;;;;;11.43;68.11;95617.53;5088633;28;20059;-77
2022/05/06 03:59:17;;;;;;;20.33;14.50;;;;;;;11.46;67.63;95622.31;5072088;28;20031;-77
2022/05/06 04:01:43;;;;;;;23.20;15.02;;;;;;;11.49;67.52;95618.47;5088943;28;20020;-78
2022/05/06 04:04:08;;;;;;;33.78;17.17;;;;;;;11.55;66.87;95620.19;5071916;28;20058;-77
2022/05/06 04:06:34;;;;;;;34.72;16.65;;;;;;;11.55;67.51;95626.22;5089072;28;20452;-77
2022/05/06 04:08:59;;;;;;;37.75;14.80;;;;;;;11.60;67.40;95625.56;5088187;28;20027;-76
2022/05/06 04:11:25;;;;;;;21.25;13.32;;;;;;;11.62;67.42;95626.94;5088496;28;20039;-77
2022/05/06 04:13:50;;;;;;;27.65;13.50;;;;;;;11.64;67.63;95621.50;5088845;28;20467;-76
2022/05/06 04:16:16;;;;;;;29.50;16.08;;;;;;;11.70;67.33;95628.44;5089761;28;20039;-77
2022/05/06 04:18:41;;;;;;;21.83;12.98;;;;;;;11.71;66.98;95624.81;5071265;28;20037;-76
2022/05/06 04:23:51;;;;;;;15.13;10.18;;;;;;;11.81;66.71;95617.31;5090043;28;20497;-77
2022/05/06 04:26:16;;;;;;;17.00;10.55;;;;;;;11.88;66.69;95625.06;5071625;28;20020;-77
2022/05/06 04:28:43;;;;;;;16.08;10.73;;;;;;;11.87;66.49;95637.28;5071768;28;20491;-77
2022/05/06 04:31:09;;;;;;;17.05;11.40;;;;;;;11.90;66.82;95629.03;5087871;28;20103;-77
2022/05/06 04:33:39;;;;;;;19.05;13.85;;;;;;;11.94;66.58;95645.81;5088159;28;20179;-76
2022/05/06 04:36:09;;;;;;;22.23;16.65;;;;;;;12.06;66.19;95647.69;5053645;28;20100;-76
2022/05/06 04:38:35;;;;;;;23.15;13.63;;;;;;;12.09;65.99;95640.22;5089316;28;20036;-76
2022/05/06 04:41:01;;;;;;;19.73;14.63;;;;;;;12.19;65.65;95642.28;5089650;28;20039;-76
2022/05/06 04:43:27;;;;;;;20.58;14.10;;;;;;;12.24;65.87;95639.84;5089664;28;20028;-76
2022/05/06 04:45:52;;;;;;;20.80;13.43;;;;;;;12.28;65.45;95651.41;5071051;28;20032;-76
2022/05/06 04:48:18;;;;;;;13.57;11.07;;;;;;;12.33;65.30;95644.50;5087633;28;20035;-76
2022/05/06 04:50:44;;;;;;;18.45;11.65;;;;;;;12.44;65.01;95640.34;5070801;28;20025;-75
2022/05/06 04:53:10;;;;;;;21.13;13.68;;;;;;;12.52;64.75;95641.81;5088504;28;20094;-77
2022/05/06 04:55:40;;;;;;;25.25;15.88;;;;;;;12.62;64.47;95645.50;5070813;28;20028;-76
2022/05/06 04:58:06;;;;;;;22.65;15.73;;;;;;;12.69;64.07;95649.81;5070884;28;20027;-76
2022/05/06 05:00:32;;;;;;;22.08;16.77;;;;;;;12.81;63.99;95653.25;5071154;28;20032;-76
2022/05/06 05:02:57;;;;;;;24.25;16.45;;;;;;;12.88;63.66;95659.16;5087546;28;20070;-76
2022/05/06 05:05:24;;;;;;;16.30;12.77;;;;;;;12.99;63.33;95657.56;5070989;28;20411;-76
2022/05/06 05:07:49;;;;;;;21.08;13.57;;;;;;;13.11;62.95;95653.16;5088917;28;20422;-76
2022/05/06 05:10:15;;;;;;;16.83;13.13;;;;;;;13.26;62.70;95657.97;5054190;28;20051;-76
2022/05/06 05:12:41;;;;;;;14.25;10.80;;;;;;;13.37;62.68;95659.78;5087771;28;20032;-76
2022/05/06 05:15:06;;;;;;;25.65;14.88;;;;;;;13.49;62.06;95660.56;5070969;28;20036;-76
2022/05/06 05:17:32;;;;;;;27.77;16.73;;;;;;;13.69;61.63;95661.00;5088760;28;20468;-76
2022/05/06 05:19:57;;;;;;;29.55;20.55;;;;;;;13.84;61.36;95664.97;5087114;28;20035;-76
2022/05/06 05:22:23;;;;;;;23.50;15.65;;;;;;;13.99;60.63;95658.22;5087689;28;20024;-76
2022/05/06 05:24:48;;;;;;;18.25;12.70;;;;;;;14.18;59.98;95658.81;5091160;28;20031;-75
2022/05/06 05:27:14;;;;;;;16.75;11.05;;;;;;;14.35;59.53;95661.50;5092461;28;20031;-76
2022/05/06 05:29:40;;;;;;;11.85;10.55;;;;;;;14.55;58.89;95658.47;5101237;28;20060;-75
2022/05/06 05:32:06;;;;;;;17.35;9.85;;;;;;;14.78;58.35;95650.47;5085936;28;20032;-77
2022/05/06 05:34:32;;;;;;;17.35;9.60;;;;;;;15.02;57.43;95653.75;5091207;28;20047;-76
2022/05/06 05:39:28;;;;;;;10.07;8.82;;;;;;;15.64;55.65;95652.81;5108644;22;20047;-76
2022/05/06 05:41:53;;;;;;;11.30;8.60;;;;;;;16.12;54.26;95659.97;5097300;28;20039;-76
2022/05/06 05:49:48;;;;;;;14.90;8.07;;;;;;;17.32;50.67;95650.03;5091731;28;20063;-75
2022/05/06 05:52:14;;;;;;;13.10;7.28;;;;;;;18.22;46.90;95641.03;5093460;28;20483;-75
2022/05/06 05:57:09;;;;;;;16.20;7.63;;;;;;;20.50;40.80;95644.44;4784620;22;20063;-76
2022/05/06 05:59:34;;;;;;;17.80;7.85;;;;;;;21.41;38.29;95642.94;5072607;28;20028;-77
2022/05/06 06:02:01;;;;;;;13.40;6.97;;;;;;;22.01;36.94;95638.06;5054322;28;20036;-77
2022/05/06 06:04:27;;;;;;;16.25;7.40;;;;;;;22.83;35.42;95631.69;5053689;28;20049;-77
2022/05/06 06:06:52;;;;;;;18.23;7.50;;;;;;;23.41;33.97;95641.88;5049899;28;20036;-76
2022/05/06 06:09:21;;;;;;;9.48;6.88;;;;;;;23.88;32.94;95636.22;5071259;28;20024;-76
2022/05/06 06:11:47;;;;;;;14.32;7.22;;;;;;;24.46;32.21;95640.13;5070630;28;20048;-76
2022/05/06 06:14:13;;;;;;;14.00;6.90;;;;;;;24.57;31.12;95635.38;5070748;28;20032;-76
2022/05/06 06:16:38;;;;;;;19.20;7.28;;;;;;;23.92;31.77;95639.09;5051998;28;20491;-76
2022/05/06 06:19:04;;;;;;;11.70;7.20;;;;;;;23.56;32.99;95631.75;5053118;28;20513;-76
2022/05/06 06:21:29;;;;;;;15.10;7.45;;;;;;;23.84;32.35;95637.91;5053057;28;20032;-76
2022/05/06 06:23:55;;;;;;;15.10;7.53;;;;;;;24.06;32.24;95636.41;5019912;28;20037;-76
2022/05/06 06:26:20;;;;;;;22.08;7.70;;;;;;;24.03;31.70;95642.34;5071332;28;20040;-76
2022/05/06 06:28:46;;;;;;;10.80;6.97;;;;;;;23.97;32.20;95646.19;5034539;28;20041;-76
2022/05/06 06:31:12;;;;;;;19.85;7.07;;;;;;;24.07;32.17;95630.03;5053218;28;20479;-76
2022/05/06 06:33:38;;;;;;;12.93;6.78;;;;;;;24.05;32.25;95632.97;5036449;28;20033;-76
2022/05/06 06:36:04;;;;;;;16.73;7.18;;;;;;;23.71;32.22;95630.72;5053006;28;20024;-76
2022/05/06 06:38:30;;;;;;;15.60;7.30;;;;;;;23.22;32.92;95633.97;5052289;28;20089;-76
2022/05/06 06:40:55;;;;;;;12.73;7.75;;;;;;;22.93;33.08;95627.00;5070825;28;20032;-76
2022/05/06 06:43:21;;;;;;;16.70;8.48;;;;;;;22.23;34.55;95634.88;5036506;28;20093;-76
2022/05/06 06:45:46;;;;;;;14.27;7.40;;;;;;;21.97;34.98;95626.47;5071242;28;20418;-76
2022/05/06 06:48:12;;;;;;;20.25;7.75;;;;;;;21.83;35.57;95625.56;5071259;28;20032;-78
2022/05/06 06:50:39;;;;;;;14.45;7.40;;;;;;;21.74;35.62;95637.84;5052734;28;20039;-77
2022/05/06 06:53:05;;;;;;;7.72;6.85;;;;;;;21.52;35.47;95636.47;5036417;28;20032;-77
2022/05/06 06:55:30;;;;;;;13.98;7.22;;;;;;;21.58;35.62;95623.97;5071289;28;20403;-77
2022/05/06 06:57:56;;;;;;;13.40;6.78;;;;;;;21.81;35.94;95630.38;5069624;28;20048;-77
2022/05/06 07:00:21;;;;;;;7.53;6.75;;;;;;;21.93;35.82;95630.72;5036632;28;20024;-77
2022/05/06 07:02:47;;;;;;;12.15;6.75;;;;;;;21.92;34.46;95623.84;5069240;28;20041;-77
2022/05/06 07:05:12;;;;;;;12.20;7.03;;;;;;;22.13;34.87;95635.03;5036702;28;20052;-77
2022/05/06 07:13:05;;;;;;;15.07;6.45;;;;;;;22.15;33.76;95630.25;5070387;28;20040;-77
2022/05/06 07:15:32;;;;;;;6.97;5.80;;;;;;;22.15;34.30;95628.38;5053336;28;20029;-76
2022/05/06 07:17:58;;;;;;;9.52;5.60;;;;;;;22.25;33.88;95626.66;5052785;28;20064;-76
2022/05/06 07:20:23;;;;;;;12.32;5.43;;;;;;;22.39;33.93;95623.00;5052574;28;20448;-76
2022/05/06 07:22:49;;;;;;;9.88;5.82;;;;;;;22.76;33.04;95627.50;5052374;28;20036;-77
2022/05/06 07:25:14;;;;;;;6.03;5.05;;;;;;;22.90;33.15;95629.44;5035200;28;20545;-76
2022/05/06 07:27:40;;;;;;;13.40;5.47;;;;;;;22.68;33.77;95630.81;5070773;28;20032;-76
2022/05/06 07:30:06;;;;;;;9.73;5.13;;;;;;;22.82;33.40;95627.44;5070558;28;20041;-77
2022/05/06 07:32:32;;;;;;;10.93;5.38;;;;;;;22.57;33.29;95621.44;5035518;28;20353;-75
2022/05/06 07:34:57;;;;;;;10.45;5.03;;;;;;;22.53;33.60;95623.09;5035577;28;20039;-76
2022/05/06 07:37:23;;;;;;;7.03;5.05;;;;;;;22.45;33.64;95626.38;5050929;28;20487;-76
2022/05/06 07:39:48;;;;;;;7.90;5.22;;;;;;;22.25;34.17;95618.72;5035338;28;20093;-77
2022/05/06 07:42:14;;;;;;;11.15;5.20;;;;;;;22.61;33.73;95617.13;5068772;28;20523;-76
2022/05/06 07:44:40;;;;;;;12.10;5.70;;;;;;;22.71;33.28;95622.28;5069993;28;20028;-77
2022/05/06 07:47:05;;;;;;;10.82;5.32;;;;;;;22.45;33.85;95621.06;5051535;28;20021;-76
2022/05/06 07:49:31;;;;;;;6.03;5.32;;;;;;;21.80;35.11;95621.63;5067912;28;20056;-76
2022/05/06 07:51:56;;;;;;;8.00;5.20;;;;;;;21.81;35.15;95622.41;5070016;28;20032;-76
2022/05/06 07:54:22;;;;;;;18.20;5.18;;;;;;;21.91;34.55;95611.69;5036048;28;20035;-77
2022/05/06 07:56:47;;;;;;;12.38;4.88;;;;;;;21.69;35.78;95620.16;5035597;28;20584;-76
2022/05/06 07:59:13;;;;;;;8.18;5.03;;;;;;;22.13;35.06;95624.44;5065127;28;20477;-76
2022/05/06 08:04:38;;;;;;;6.45;4.57;;;;;;;22.19;34.94;95617.22;5070210;28;20399;-76
2022/05/06 08:07:05;;;;;;;11.90;5.43;;;;;;;22.50;34.21;95618.38;5037949;28;20044;-76
2022/05/06 08:09:31;;;;;;;11.93;5.38;;;;;;;22.74;34.39;95613.75;5051202;28;20131;-77
2022/05/06 08:11:56;;;;;;;9.70;5.10;;;;;;;22.53;34.79;95612.47;5034162;28;20036;-75
2022/05/06 08:14:22;;;;;;;8.18;4.47;;;;;;;22.72;34.17;95610.59;5068902;28;20033;-75
2022/05/06 08:16:48;;;;;;;11.65;4.97;;;;;;;22.50;34.44;95610.41;5049891;28;20036;-76
2022/05/06 08:19:13;;;;;;;12.40;4.95;;;;;;;22.43;34.81;95608.09;5068731;28;20024;-77
2022/05/06 08:21:41;;;;;;;9.30;5.20;;;;;;;22.70;34.23;95610.09;5055588;28;20039;-77
2022/05/06 08:24:08;;;;;;;6.90;5.05;;;;;;;22.63;34.59;95607.03;5046881;28;20067;-76
2022/05/06 08:26:33;;;;;;;10.27;4.85;;;;;;;22.69;33.83;95613.03;5074585;28;20028;-76
2022/05/06 08:28:59;;;;;;;11.30;4.50;;;;;;;22.55;34.94;95607.69;5034409;28;20032;-75
2022/05/06 08:31:24;;;;;;;5.18;4.68;;;;;;;22.41;35.06;95598.88;5032200;28;20495;-75
2022/05/06 08:33:50;;;;;;;24.27;4.78;;;;;;;22.30;34.74;95608.84;5049974;28;20498;-76
2022/05/06 08:36:15;;;;;;;14.60;5.03;;;;;;;22.47;34.87;95605.69;5051032;28;20112;-75
2022/05/06 08:38:42;;;;;;;7.50;4.82;;;;;;;22.62;34.67;95600.16;5034387;28;20028;-75
2022/05/06 08:41:09;;;;;;;10.82;4.70;;;;;;;22.46;35.15;95601.47;5049148;28;20037;-75
2022/05/06 08:43:35;;;;;;;11.68;4.63;;;;;;;22.31;35.41;95599.81;5059136;28;20039;-73
2022/05/06 08:51:31;;;;;;;7.00;5.28;;;;;;;22.36;35.79;95591.00;5041798;28;20063;-77
2022/05/06 08:53:57;;;;;;;5.95;4.80;;;;;;;22.13;36.62;95596.09;5045626;28;20052;-78
2022/05/06 08:56:22;;;;;;;8.73;4.57;;;;;;;22.05;36.68;95602.00;5056799;28;20032;-78
2022/05/06 08:58:48;;;;;;;8.80;4.60;;;;;;;22.13;36.53;95598.75;5056100;28;20582;-78
2022/05/06 09:01:16;;;;;;;9.75;4.70;;;;;;;21.97;36.53;95602.63;5075584;28;20404;-78
2022/05/06 09:03:42;;;;;;;6.57;4.28;;;;;;;21.65;37.48;95607.78;5057680;28;20035;-77
2022/05/06 09:06:27;;;;;;;5.80;4.60;;;;;;;21.42;37.87;95610.13;5039792;28;20036;-77
2022/05/06 09:08:54;;;;;;;9.07;4.60;;;;;;;21.57;37.74;95609.97;5037859;28;20122;-78
2022/05/06 09:17:21;;;;;;;4.60;3.58;;;;;;;21.76;36.99;95588.81;5045422;28;20094;-77
2022/05/06 09:19:46;;;;;;;10.85;4.60;;;;;;;21.87;37.43;95578.91;5020862;28;20071;-78
2022/05/06 09:22:13;;;;;;;4.60;4.20;;;;;;;21.99;36.90;95586.44;5038785;28;20040;-78
2022/05/06 09:24:42;;;;;;;6.85;4.40;;;;;;;21.71;36.99;95580.94;5038417;28;20468;-78
2022/05/06 09:27:12;;;;;;;7.88;4.57;;;;;;;21.16;37.54;95584.97;5052714;28;20032;-78
2022/05/06 09:29:44;;;;;;;6.70;4.60;;;;;;;21.35;37.24;95577.91;5039149;28;20028;-80
2022/05/06 09:32:23;;;;;;;11.02;5.53;;;;;;;21.25;37.86;95570.88;5058985;28;20064;-78
2022/05/06 09:34:56;;;;;;;5.95;4.93;;;;;;;21.21;37.95;95575.13;5045118;28;20538;-78
2022/05/06 09:37:34;;;;;;;14.90;5.07;;;;;;;21.54;37.41;95557.59;5042773;28;20541;-78
2022/05/06 09:40:07;;;;;;;5.05;4.60;;;;;;;21.65;37.06;95565.44;5079471;28;20044;-78
2022/05/06 09:42:33;;;;;;;4.47;4.07;;;;;;;21.25;36.66;95570.88;5044620;28;20032;-78
2022/05/06 09:45:21;;;;;;;8.27;4.03;;;;;;;20.91;37.07;95572.75;5045015;28;20468;-78
2022/05/06 09:48:13;;;;;;;17.77;4.60;;;;;;;20.48;37.83;95574.41;5078810;28;20036;-78
2022/05/06 09:50:52;;;;;;;9.57;4.40;;;;;;;20.29;38.59;95567.13;5061305;28;20036;-79
2022/05/06 09:53:20;;;;;;;4.65;4.18;;;;;;;20.18;38.23;95568.25;5019021;28;20044;-79
2022/05/06 09:55:49;;;;;;;6.45;4.35;;;;;;;20.08;39.14;95557.75;5018941;28;20430;-79
2022/05/06 09:58:18;;;;;;;6.03;5.22;;;;;;;19.95;39.05;95553.06;4986616;28;20042;-79
2022/05/06 10:00:48;;;;;;;5.18;4.43;;;;;;;20.16;39.08;95575.63;5020253;28;20149;-78
2022/05/06 10:03:21;;;;;;;7.45;3.97;;;;;;;20.17;39.06;95558.72;5004869;28;20100;-79
2022/05/06 10:05:54;;;;;;;5.93;4.32;;;;;;;20.23;38.85;95556.88;5029266;28;20030;-79
2022/05/06 10:08:21;;;;;;;8.50;4.32;;;;;;;20.47;37.86;95551.69;5019329;28;20140;-79
2022/05/06 10:11:14;;;;;;;7.35;3.88;;;;;;;20.11;37.92;95557.19;4985010;28;20045;-79
2022/05/06 10:13:59;;;;;;;6.55;3.85;;;;;;;20.01;38.16;95581.00;5034844;28;20432;-79
2022/05/06 10:16:45;;;;;;;7.00;4.30;;;;;;;19.98;38.45;95549.88;5027238;28;20164;-77
2022/05/06 10:19:28;;;;;;;6.38;4.53;;;;;;;20.16;38.25;95546.59;5040100;28;20044;-79
2022/05/06 10:21:57;;;;;;;10.30;4.03;;;;;;;20.52;37.53;95559.59;4984442;28;20026;-78
2022/05/06 10:24:41;;;;;;;6.18;4.43;;;;;;;20.63;36.91;95542.59;5025679;28;20041;-78
2022/05/06 10:34:08;;;;;;;6.15;4.25;;;;;;;20.59;35.90;95534.44;5020842;28;20048;-79
2022/05/06 10:36:54;;;;;;;7.47;3.95;;;;;;;20.65;35.17;95537.81;5028292;28;20029;-79
2022/05/06 10:39:48;;;;;;;12.63;4.30;;;;;;;21.10;34.57;95527.88;4998869;28;20040;-79
2022/05/06 10:42:19;;;;;;;8.38;3.83;;;;;;;21.08;34.47;95522.09;5015681;28;20040;-79
2022/05/06 10:44:50;;;;;;;4.25;3.70;;;;;;;21.19;34.26;95515.63;5037932;28;20507;-79
2022/05/06 10:47:28;;;;;;;5.55;3.47;;;;;;;21.38;33.95;95527.09;5024281;28;20044;-79
2022/05/06 10:49:57;;;;;;;5.63;3.55;;;;;;;21.30;33.90;95543.56;5056252;28;20185;-79
2022/05/06 10:53:08;;;;;;;5.03;3.50;;;;;;;20.83;34.20;95531.88;5021521;28;20041;-79
2022/05/06 10:56:08;;;;;;;7.83;6.57;;;;;;;20.78;34.18;95505.47;5008739;28;20038;-79
2022/05/06 10:58:38;;;;;;;8.55;3.75;;;;;;;20.62;34.53;95520.66;4982328;28;20368;-79
2022/05/06 11:01:08;;;;;;;4.13;3.72;;;;;;;20.66;34.90;95513.78;4907696;29;20075;-80
2022/05/06 11:03:54;;;;;;;4.57;3.58;;;;;;;21.14;33.55;95507.75;4957899;28;20058;-79
2022/05/06 11:06:24;;;;;;;10.68;3.88;;;;;;;20.97;33.74;95513.47;4955046;28;20145;-79
2022/05/06 11:08:50;;;;;;;11.30;3.60;;;;;;;21.00;33.16;95533.28;4986323;28;20097;-79
2022/05/06 11:11:21;;;;;;;4.60;3.78;;;;;;;20.78;33.47;95523.16;4984944;28;20111;-79
2022/05/06 11:14:17;;;;;;;5.07;3.40;;;;;;;20.83;33.20;95517.84;4992224;28;20049;-79
2022/05/06 11:16:43;;;;;;;4.57;3.92;;;;;;;20.73;34.19;95513.44;4969195;28;20058;-79
2022/05/06 11:19:08;;;;;;;3.90;3.40;;;;;;;20.85;33.38;95502.50;5021526;23;20040;-78
2022/05/06 11:21:34;;;;;;;7.38;3.72;;;;;;;20.56;34.14;95510.41;5111964;28;20031;-78
2022/05/06 11:24:15;;;;;;;7.07;3.50;;;;;;;20.70;33.74;95508.72;5105517;22;20044;-79
2022/05/06 11:26:45;;;;;;;5.03;3.78;;;;;;;20.77;33.69;95493.31;5072723;28;20039;-79
2022/05/06 11:29:14;;;;;;;6.97;3.60;;;;;;;20.91;33.73;95488.16;5071936;28;20040;-79
2022/05/06 11:31:59;;;;;;;6.13;4.18;;;;;;;20.98;33.45;95492.03;5051793;28;20040;-78
2022/05/06 11:35:13;;;;;;;6.80;3.40;;;;;;;21.25;33.43;95480.16;5070953;28;20037;-78
2022/05/06 11:37:47;;;;;;;6.43;3.15;;;;;;;21.53;31.76;95489.84;5066531;28;20037;-78
2022/05/06 11:40:35;;;;;;;9.02;3.65;;;;;;;21.52;31.47;95477.69;5042431;28;20119;-79
2022/05/06 11:43:21;;;;;;;3.67;2.92;;;;;;;21.60;31.51;95483.41;5036427;28;20044;-78
2022/05/06 11:48:42;;;;;;;6.30;3.50;;;;;;;21.20;31.63;95485.47;5042343;28;20047;-79
2022/05/06 11:51:07;;;;;;;8.07;3.45;;;;;;;21.54;31.28;95480.84;5036823;28;20407;-78
2022/05/06 11:53:35;;;;;;;5.47;3.22;;;;;;;21.62;30.62;95476.75;5035437;28;20045;-78
2022/05/06 11:56:01;;;;;;;6.03;4.30;;;;;;;21.97;29.63;95464.91;5020297;28;20036;-78
2022/05/06 11:58:27;;;;;;;7.55;3.25;;;;;;;21.95;29.76;95464.41;5036665;28;20051;-78
2022/05/06 12:01:01;;;;;;;3.55;2.60;;;;;;;21.42;30.30;95467.22;5035193;28;20495;-78
2022/05/06 12:03:27;;;;;;;2.88;2.55;;;;;;;21.21;29.78;95476.47;5055532;28;20036;-79
2022/05/06 12:06:01;;;;;;;4.10;2.80;;;;;;;21.09;29.89;95476.84;5037913;28;20109;-78
2022/05/06 12:08:26;;;;;;;6.57;2.90;;;;;;;21.19;30.23;95462.75;5062970;28;20149;-78
2022/05/06 12:11:06;;;;;;;10.35;3.70;;;;;;;21.36;30.04;95463.09;5072078;28;20040;-78
2022/05/06 12:13:40;;;;;;;3.75;3.30;;;;;;;21.24;30.29;95454.72;5073585;28;20043;-78
2022/05/06 12:16:13;;;;;;;6.05;2.78;;;;;;;21.41;29.65;95441.84;5077589;28;20036;-78
2022/05/06 12:18:51;;;;;;;12.57;3.05;;;;;;;21.58;28.92;95455.38;5070506;28;20506;-78
2022/05/06 12:24:02;;;;;;;5.32;2.50;;;;;;;21.02;29.66;95444.69;5083331;28;20075;-78
2022/05/06 12:26:35;;;;;;;3.42;2.88;;;;;;;20.85;29.06;95431.91;5076635;28;20040;-79
2022/05/06 12:29:02;;;;;;;2.60;2.40;;;;;;;20.72;29.16;95422.00;5054105;28;20040;-80
2022/05/06 12:31:31;;;;;;;4.95;2.55;;;;;;;20.76;28.68;95428.28;5036634;28;20160;-80
2022/05/06 12:34:01;;;;;;;8.00;2.90;;;;;;;20.86;28.63;95416.84;5053407;28;20041;-80
2022/05/06 12:36:26;;;;;;;4.10;2.47;;;;;;;20.83;28.38;95423.47;5045756;28;20525;-80
2022/05/06 12:38:52;;;;;;;8.45;2.80;;;;;;;20.98;29.12;95420.63;5071771;28;20041;-79
2022/05/06 12:41:25;;;;;;;2.55;2.45;;;;;;;21.03;27.74;95400.53;5045930;28;20040;-80
2022/05/06 12:43:51;;;;;;;6.90;2.95;;;;;;;21.01;28.31;95403.44;5069865;28;20056;-79
2022/05/06 12:46:30;;;;;;;4.53;2.72;;;;;;;21.24;28.11;95402.66;5067310;23;20053;-79